Time;durP1;ratioP1;P1;durP2;ratioP2;P2;SDS_P1;SDS_P2;PMS_P1;PMS_P2;Temp;Humidity;BMP_temperature;BMP_pressure;BME280_temperature;BME280_humidity;BME280_pressure;Samples;Min_cycle;Max_cycle;Signal;HPM_P1;HPM_P2
2024/01/05 00:00:37;;;;;;;5.77;2.07;;;6.20;25.90;;;;;;5011722;28;20617;-69
2024/01/05 00:03:03;;;;;;;5.40;3.27;;;6.20;25.90;;;;;;5011455;28;20210;-70
2024/01/05 00:05:28;;;;;;;4.73;2.10;;;6.20;26.20;;;;;;5011745;28;20188;-69
2024/01/05 00:07:54;;;;;;;3.47;2.00;;;6.30;25.40;;;;;;5011614;28;20926;-69
2024/01/05 00:10:19;;;;;;;2.83;1.87;;;6.30;25.10;;;;;;5011560;28;20199;-69
2024/01/05 00:12:45;;;;;;;4.13;1.70;;;6.40;25.10;;;;;;5011646;28;20187;-68
2024/01/05 00:15:13;;;;;;;3.10;1.53;;;6.30;25.00;;;;;;5011731;28;20265;-69
2024/01/05 00:17:39;;;;;;;2.83;1.20;;;6.30;24.90;;;;;;5011639;28;20184;-69
2024/01/05 00:20:06;;;;;;;7.57;1.40;;;6.40;24.60;;;;;;5011485;28;20451;-69
2024/01/05 00:22:32;;;;;;;5.30;1.50;;;6.40;24.40;;;;;;5011257;28;20168;-75
2024/01/05 00:24:58;;;;;;;5.97;1.23;;;6.40;24.30;;;;;;5011789;28;20439;-70
2024/01/05 00:27:23;;;;;;;9.03;1.90;;;6.30;24.50;;;;;;5011641;28;20177;-70
2024/01/05 00:29:49;;;;;;;3.83;1.60;;;6.30;24.50;;;;;;5011493;28;20184;-69
2024/01/05 00:32:14;;;;;;;10.60;1.87;;;6.30;24.40;;;;;;4993753;28;20176;-69
2024/01/05 00:34:40;;;;;;;5.77;2.10;;;6.40;24.30;;;;;;4993915;28;20212;-69
2024/01/05 00:37:05;;;;;;;7.13;1.43;;;6.30;24.30;;;;;;5011361;28;20519;-70
2024/01/05 00:39:31;;;;;;;2.70;1.40;;;6.40;23.50;;;;;;5011287;28;20295;-69
2024/01/05 00:41:57;;;;;;;4.57;1.17;;;6.40;23.40;;;;;;5011125;28;20253;-70
2024/01/05 00:44:23;;;;;;;9.33;1.00;;;6.50;23.00;;;;;;4993640;28;20259;-69
2024/01/05 00:46:49;;;;;;;2.60;1.27;;;6.50;23.00;;;;;;5011354;28;20425;-70
2024/01/05 00:49:14;;;;;;;4.03;1.57;;;6.60;22.30;;;;;;5011275;28;20174;-69
2024/01/05 00:51:40;;;;;;;2.67;1.23;;;6.60;22.00;;;;;;5013925;28;20190;-69
2024/01/05 00:54:06;;;;;;;2.20;1.10;;;6.60;22.30;;;;;;5014702;28;20255;-70
2024/01/05 00:56:31;;;;;;;3.40;1.27;;;6.60;22.00;;;;;;5014642;28;20177;-70
2024/01/05 00:58:57;;;;;;;4.20;1.20;;;6.60;22.40;;;;;;4997144;28;20427;-70
2024/01/05 01:01:22;;;;;;;10.50;2.10;;;6.60;22.70;;;;;;5014343;28;20185;-70
2024/01/05 01:03:48;;;;;;;2.33;1.37;;;6.60;22.40;;;;;;5014387;28;20206;-69
2024/01/05 01:06:14;;;;;;;3.50;1.70;;;6.50;22.60;;;;;;5014338;28;20264;-69
2024/01/05 01:08:39;;;;;;;4.53;2.00;;;6.40;23.10;;;;;;5014362;28;20264;-70
2024/01/05 01:11:05;;;;;;;5.03;1.80;;;6.40;23.70;;;;;;5014327;28;20183;-69
2024/01/05 01:13:30;;;;;;;3.03;1.97;;;6.40;23.40;;;;;;5014317;28;20212;-69
2024/01/05 01:15:56;;;;;;;4.30;2.63;;;6.40;23.10;;;;;;5014325;28;20177;-71
2024/01/05 01:18:21;;;;;;;2.33;1.27;;;6.40;23.10;;;;;;5014090;28;20486;-69
2024/01/05 01:20:47;;;;;;;2.77;1.40;;;6.40;22.80;;;;;;5013832;28;20219;-69
2024/01/05 01:23:13;;;;;;;12.20;1.87;;;6.40;22.60;;;;;;4996288;28;20198;-70
2024/01/05 01:25:38;;;;;;;3.07;1.70;;;6.40;22.30;;;;;;5014117;28;20208;-69
2024/01/05 01:28:04;;;;;;;2.50;1.57;;;6.40;22.20;;;;;;5013878;28;20894;-68
2024/01/05 01:30:30;;;;;;;3.43;1.17;;;6.40;22.20;;;;;;5014054;28;20203;-69
2024/01/05 01:32:55;;;;;;;4.87;2.30;;;6.50;22.10;;;;;;5013582;28;20413;-68
2024/01/05 01:35:21;;;;;;;3.77;1.30;;;6.50;21.50;;;;;;5013679;28;20727;-69
2024/01/05 01:37:46;;;;;;;2.10;1.03;;;6.60;21.20;;;;;;5013711;28;20185;-68
2024/01/05 01:40:12;;;;;;;6.40;1.40;;;6.70;21.20;;;;;;5013656;28;20235;-68
2024/01/05 01:42:43;;;;;;;4.63;1.27;;;6.60;21.20;;;;;;5013457;28;20668;-68
2024/01/05 01:45:09;;;;;;;3.30;1.50;;;6.60;21.20;;;;;;5013505;28;20721;-69
2024/01/05 01:47:34;;;;;;;5.03;1.87;;;6.60;21.20;;;;;;4995849;28;20516;-67
2024/01/05 01:50:01;;;;;;;2.67;1.40;;;6.60;21.20;;;;;;5013562;28;20190;-69
2024/01/05 01:52:27;;;;;;;6.53;1.70;;;6.60;21.20;;;;;;5013468;28;20184;-69
2024/01/05 01:54:52;;;;;;;3.73;1.00;;;6.60;21.20;;;;;;5013436;28;20440;-70
2024/01/05 01:57:19;;;;;;;6.37;1.87;;;6.50;21.10;;;;;;5013452;28;20824;-69
2024/01/05 01:59:44;;;;;;;3.47;1.23;;;6.50;21.10;;;;;;5013193;28;20212;-69
2024/01/05 02:02:12;;;;;;;6.20;1.37;;;6.50;21.30;;;;;;5012004;28;20503;-68
2024/01/05 02:04:38;;;;;;;3.47;1.33;;;6.50;21.40;;;;;;5013272;28;20486;-68
2024/01/05 02:07:04;;;;;;;5.73;2.00;;;6.50;21.10;;;;;;5013249;28;20412;-68
2024/01/05 02:09:30;;;;;;;3.40;1.60;;;6.50;21.10;;;;;;5013377;28;20784;-68
2024/01/05 02:11:56;;;;;;;2.50;1.27;;;6.60;20.50;;;;;;5012988;28;20186;-69
2024/01/05 02:14:22;;;;;;;14.97;2.00;;;6.60;20.70;;;;;;5013085;28;20959;-69
2024/01/05 02:16:47;;;;;;;9.10;1.50;;;6.50;20.20;;;;;;5013041;28;20211;-69
2024/01/05 02:19:13;;;;;;;2.90;1.43;;;6.60;20.20;;;;;;5012983;28;20181;-69
2024/01/05 02:21:42;;;;;;;2.80;1.93;;;6.60;20.20;;;;;;5012838;28;20261;-69
2024/01/05 02:24:07;;;;;;;4.23;1.33;;;6.50;20.80;;;;;;5012990;28;20207;-69
2024/01/05 02:26:33;;;;;;;4.50;1.80;;;6.50;20.80;;;;;;5012824;28;20907;-68
2024/01/05 02:29:04;;;;;;;2.07;0.90;;;6.50;20.60;;;;;;4995122;28;20187;-68
2024/01/05 02:31:30;;;;;;;2.90;1.20;;;6.50;20.10;;;;;;5012716;28;20538;-68
2024/01/05 02:33:55;;;;;;;6.77;1.60;;;6.50;21.00;;;;;;5012873;28;20439;-69
2024/01/05 02:36:21;;;;;;;7.47;1.57;;;6.50;20.30;;;;;;5012810;28;20183;-69
2024/01/05 02:38:46;;;;;;;3.37;1.93;;;6.50;20.40;;;;;;5012965;28;20187;-68
2024/01/05 02:41:12;;;;;;;2.47;1.00;;;6.40;21.00;;;;;;5012282;28;20280;-68
2024/01/05 02:43:37;;;;;;;2.60;1.50;;;6.50;20.10;;;;;;5012320;28;20572;-68
2024/01/05 02:46:03;;;;;;;2.83;1.43;;;6.50;20.20;;;;;;5012451;28;20211;-68
2024/01/05 02:48:28;;;;;;;5.23;1.70;;;6.50;20.00;;;;;;5012457;28;20235;-68
2024/01/05 02:50:54;;;;;;;4.03;1.50;;;6.50;20.60;;;;;;5012521;28;20188;-68
2024/01/05 02:53:19;;;;;;;3.23;1.50;;;6.50;20.50;;;;;;5012367;28;20673;-69
2024/01/05 02:55:45;;;;;;;3.07;1.10;;;6.50;20.40;;;;;;5012360;28;20249;-68
2024/01/05 02:58:10;;;;;;;2.13;1.03;;;6.40;20.60;;;;;;5012091;28;20218;-68
2024/01/05 03:00:36;;;;;;;4.07;1.30;;;6.40;20.60;;;;;;5012174;28;20663;-69
2024/01/05 03:03:03;;;;;;;5.40;1.50;;;6.40;20.10;;;;;;5011978;28;20764;-68
2024/01/05 03:05:29;;;;;;;4.53;1.60;;;6.40;20.20;;;;;;5012122;28;20667;-68
2024/01/05 03:07:55;;;;;;;7.40;2.73;;;6.40;20.40;;;;;;5012124;28;20411;-68
2024/01/05 03:10:20;;;;;;;8.30;4.33;;;6.30;22.10;;;;;;4994462;28;20187;-68
2024/01/05 03:12:46;;;;;;;4.87;3.30;;;6.00;24.90;;;;;;5011592;28;20181;-68
2024/01/05 03:15:11;;;;;;;6.40;4.40;;;5.80;26.90;;;;;;4994266;28;20220;-68
2024/01/05 03:17:37;;;;;;;4.67;3.10;;;5.60;28.80;;;;;;5012053;28;20357;-69
2024/01/05 03:20:03;;;;;;;6.90;4.37;;;5.40;29.50;;;;;;5012000;28;20315;-68
2024/01/05 03:22:28;;;;;;;6.73;4.33;;;5.40;31.10;;;;;;5011837;28;20587;-68
2024/01/05 03:24:54;;;;;;;3.87;2.87;;;5.40;31.00;;;;;;4994266;28;20534;-69
2024/01/05 03:27:20;;;;;;;8.07;3.70;;;5.30;32.00;;;;;;5011808;28;20222;-69
2024/01/05 03:29:45;;;;;;;8.20;4.10;;;5.20;33.10;;;;;;5011672;28;20543;-69
2024/01/05 03:32:11;;;;;;;8.73;4.67;;;5.20;33.20;;;;;;5011641;28;20179;-69
2024/01/05 03:34:37;;;;;;;14.20;3.60;;;5.20;33.20;;;;;;5011796;28;20204;-69
2024/01/05 03:37:03;;;;;;;6.33;3.93;;;5.10;35.10;;;;;;5011776;28;20584;-69
2024/01/05 03:39:28;;;;;;;8.53;4.30;;;5.10;36.00;;;;;;5011655;28;20451;-69
2024/01/05 03:41:54;;;;;;;7.00;4.47;;;5.10;35.40;;;;;;5011458;28;20640;-68
2024/01/05 03:44:22;;;;;;;7.73;3.43;;;5.00;36.30;;;;;;5011673;28;20195;-68
2024/01/05 03:46:49;;;;;;;4.83;3.83;;;4.90;37.80;;;;;;5011498;28;20176;-68
2024/01/05 03:49:15;;;;;;;5.83;3.67;;;4.90;38.00;;;;;;5011722;28;20415;-68
2024/01/05 03:51:41;;;;;;;9.90;4.40;;;4.90;39.10;;;;;;5012325;28;20414;-68
2024/01/05 03:54:06;;;;;;;7.17;4.03;;;4.80;38.50;;;;;;5012230;28;20994;-69
2024/01/05 03:56:43;;;;;;;9.20;4.50;;;4.90;39.50;;;;;;4994296;28;20189;-69
2024/01/05 03:59:08;;;;;;;15.17;4.70;;;4.80;39.00;;;;;;5011898;28;20618;-68
2024/01/05 04:01:44;;;;;;;4.90;3.80;;;4.80;39.40;;;;;;5011588;28;20505;-68
2024/01/05 04:04:09;;;;;;;6.90;3.40;;;4.80;38.90;;;;;;5011443;28;20205;-68
2024/01/05 04:06:35;;;;;;;11.60;5.43;;;4.80;39.80;;;;;;5011416;28;20847;-68
2024/01/05 04:09:00;;;;;;;8.30;4.20;;;4.80;39.40;;;;;;5011274;28;20184;-68
2024/01/05 04:11:30;;;;;;;7.93;4.40;;;4.70;40.00;;;;;;5011425;28;20183;-68
2024/01/05 04:13:55;;;;;;;5.73;4.40;;;4.80;40.30;;;;;;5011062;28;20537;-68
2024/01/05 04:16:22;;;;;;;6.77;3.80;;;4.70;40.00;;;;;;5011452;28;20538;-68
2024/01/05 04:18:47;;;;;;;10.67;4.70;;;4.60;40.80;;;;;;5011358;28;20509;-69
2024/01/05 04:21:14;;;;;;;7.63;4.40;;;4.50;41.90;;;;;;5011056;28;20313;-69
2024/01/05 04:23:40;;;;;;;7.20;3.63;;;4.60;42.70;;;;;;5011196;28;20215;-68
2024/01/05 04:26:06;;;;;;;6.53;3.17;;;4.60;42.10;;;;;;5013613;28;20510;-68
2024/01/05 04:28:32;;;;;;;4.83;3.43;;;4.60;43.20;;;;;;5015054;28;20926;-68
2024/01/05 04:30:57;;;;;;;7.77;4.17;;;4.60;43.50;;;;;;5014602;28;20188;-69
2024/01/05 04:33:23;;;;;;;7.20;4.60;;;4.60;42.10;;;;;;5014842;28;20203;-68
2024/01/05 04:35:48;;;;;;;11.30;4.30;;;4.60;42.50;;;;;;5014863;28;20188;-67
2024/01/05 04:38:14;;;;;;;5.97;3.90;;;4.60;42.80;;;;;;5014691;28;20246;-67
2024/01/05 04:40:39;;;;;;;5.20;3.77;;;4.60;42.60;;;;;;5014609;28;20699;-68
2024/01/05 04:43:05;;;;;;;5.10;3.70;;;4.60;43.10;;;;;;5014471;28;20640;-68
2024/01/05 04:45:30;;;;;;;7.53;4.20;;;4.60;42.90;;;;;;5014646;28;20614;-69
2024/01/05 04:47:56;;;;;;;5.83;3.63;;;4.60;42.10;;;;;;5014550;28;20623;-69
2024/01/05 04:50:21;;;;;;;12.03;4.60;;;4.70;42.30;;;;;;5014543;28;20568;-68
2024/01/05 04:52:47;;;;;;;5.43;3.77;;;4.70;42.40;;;;;;5014644;28;20554;-68
2024/01/05 04:55:14;;;;;;;7.30;4.43;;;4.70;42.90;;;;;;5015174;28;20249;-68
2024/01/05 04:57:41;;;;;;;16.50;4.50;;;4.60;42.90;;;;;;5014983;28;20182;-69
2024/01/05 05:00:08;;;;;;;8.30;5.00;;;4.60;42.90;;;;;;4997162;28;20465;-69
2024/01/05 05:02:34;;;;;;;5.77;3.93;;;4.60;43.80;;;;;;5014409;28;20403;-68
2024/01/05 05:04:59;;;;;;;7.17;3.90;;;4.60;44.50;;;;;;5014419;28;20946;-68
2024/01/05 05:07:25;;;;;;;7.73;4.30;;;4.60;44.90;;;;;;5014177;28;20413;-68
2024/01/05 05:09:51;;;;;;;4.50;3.73;;;4.60;43.40;;;;;;5014446;28;20726;-69
2024/01/05 05:12:16;;;;;;;4.57;3.83;;;4.60;43.10;;;;;;4996430;28;20191;-68
2024/01/05 05:14:42;;;;;;;7.07;3.80;;;4.50;43.60;;;;;;5014034;28;20294;-68
2024/01/05 05:17:08;;;;;;;10.23;4.10;;;4.50;44.40;;;;;;5014106;28;20422;-69
2024/01/05 05:19:33;;;;;;;6.93;3.60;;;4.50;45.00;;;;;;5014003;28;20219;-68
2024/01/05 05:21:59;;;;;;;8.30;3.33;;;4.40;44.60;;;;;;5013602;28;20258;-68
2024/01/05 05:24:25;;;;;;;4.33;2.87;;;4.40;45.00;;;;;;5014151;28;20206;-68
2024/01/05 05:26:50;;;;;;;9.77;3.20;;;4.30;44.90;;;;;;5013871;28;20204;-68
2024/01/05 05:29:16;;;;;;;9.90;3.03;;;4.30;44.50;;;;;;5012684;28;20180;-69
2024/01/05 05:31:41;;;;;;;6.33;3.10;;;4.30;44.90;;;;;;5013759;28;20239;-68
2024/01/05 05:34:07;;;;;;;6.53;2.77;;;4.20;45.10;;;;;;5013738;28;20202;-67
2024/01/05 05:36:32;;;;;;;5.80;2.47;;;4.20;46.20;;;;;;4995852;28;20191;-68
2024/01/05 05:38:58;;;;;;;8.13;2.37;;;4.10;46.80;;;;;;5013624;28;20211;-68
2024/01/05 05:41:23;;;;;;;8.10;3.03;;;4.10;47.30;;;;;;5013480;28;20259;-68
2024/01/05 05:43:49;;;;;;;6.03;2.57;;;4.10;46.60;;;;;;5013858;28;20608;-68
2024/01/05 05:46:15;;;;;;;6.87;2.77;;;4.10;47.10;;;;;;4996210;28;20273;-68
2024/01/05 05:48:40;;;;;;;5.13;3.27;;;4.10;47.40;;;;;;5013572;28;20528;-68
2024/01/05 05:51:06;;;;;;;4.00;2.97;;;4.00;47.30;;;;;;5013328;28;20453;-69
2024/01/05 05:53:32;;;;;;;4.50;2.10;;;4.10;48.30;;;;;;5013531;28;20674;-70
2024/01/05 05:55:57;;;;;;;4.93;3.20;;;4.10;48.60;;;;;;5013566;28;20194;-70
2024/01/05 05:58:23;;;;;;;3.80;3.30;;;4.10;48.40;;;;;;4996121;28;20595;-70
2024/01/05 06:00:49;;;;;;;5.23;2.70;;;4.10;47.90;;;;;;5013159;28;20210;-70
2024/01/05 06:03:14;;;;;;;5.60;3.37;;;4.10;47.50;;;;;;5013363;28;20417;-70
2024/01/05 06:05:41;;;;;;;6.50;3.00;;;4.00;47.30;;;;;;5013484;28;20182;-69
2024/01/05 06:08:06;;;;;;;7.20;3.40;;;4.00;47.40;;;;;;5013000;28;20181;-69
2024/01/05 06:10:32;;;;;;;6.50;2.77;;;4.10;47.40;;;;;;5013027;28;20911;-69
2024/01/05 06:12:57;;;;;;;5.03;2.73;;;4.10;47.40;;;;;;5013005;28;20191;-69
2024/01/05 06:15:23;;;;;;;5.50;2.63;;;4.40;47.50;;;;;;5012865;28;20651;-69
2024/01/05 06:17:49;;;;;;;6.20;2.57;;;4.10;45.80;;;;;;5013152;28;20212;-69
2024/01/05 06:20:14;;;;;;;5.97;4.50;;;4.10;45.90;;;;;;5012719;28;20209;-69
2024/01/05 06:22:40;;;;;;;4.27;2.30;;;4.20;45.10;;;;;;5012715;28;20176;-69
2024/01/05 06:25:06;;;;;;;5.50;2.17;;;4.10;44.80;;;;;;5011504;28;20215;-69
2024/01/05 06:27:31;;;;;;;3.33;2.43;;;4.20;44.50;;;;;;5012849;28;20172;-68
2024/01/05 06:29:58;;;;;;;4.30;2.20;;;4.20;45.00;;;;;;5012682;28;20419;-68
2024/01/05 06:32:23;;;;;;;4.33;2.30;;;4.30;42.60;;;;;;5012358;28;20187;-67
2024/01/05 06:34:49;;;;;;;7.73;2.47;;;4.30;42.60;;;;;;5012453;28;20438;-67
2024/01/05 06:37:14;;;;;;;5.37;3.10;;;4.40;42.30;;;;;;5012574;28;20441;-74
2024/01/05 06:39:40;;;;;;;7.77;3.40;;;4.40;41.60;;;;;;5012726;28;20200;-68
2024/01/05 06:42:05;;;;;;;7.20;2.60;;;4.40;42.00;;;;;;5012098;28;20172;-69
2024/01/05 06:44:31;;;;;;;6.53;3.00;;;4.50;42.30;;;;;;5012261;28;20199;-66
2024/01/05 06:46:56;;;;;;;4.80;2.47;;;4.50;40.90;;;;;;5012158;28;20183;-67
2024/01/05 06:49:23;;;;;;;5.07;2.50;;;4.50;41.60;;;;;;5011663;28;20168;-67
2024/01/05 06:51:49;;;;;;;5.20;2.43;;;4.60;41.10;;;;;;5007044;28;20176;-67
2024/01/05 06:54:14;;;;;;;4.20;2.70;;;4.70;37.90;;;;;;5012019;28;20458;-66
2024/01/05 06:56:42;;;;;;;4.83;2.70;;;4.80;37.50;;;;;;5012034;28;20172;-67
2024/01/05 06:59:09;;;;;;;4.53;2.77;;;4.90;38.10;;;;;;5012183;28;20676;-67
2024/01/05 07:01:34;;;;;;;6.40;2.87;;;5.00;34.60;;;;;;5011914;28;20458;-68
2024/01/05 07:04:00;;;;;;;9.53;2.33;;;5.20;32.50;;;;;;5011969;28;21011;-68
2024/01/05 07:06:25;;;;;;;4.30;2.50;;;5.30;31.00;;;;;;5011937;28;20255;-67
2024/01/05 07:08:51;;;;;;;8.43;2.70;;;5.40;29.30;;;;;;5011898;28;20191;-68
2024/01/05 07:11:23;;;;;;;6.10;2.63;;;5.50;28.70;;;;;;5011926;28;20314;-68
2024/01/05 07:13:49;;;;;;;3.47;2.17;;;5.60;28.00;;;;;;5012135;28;20261;-68
2024/01/05 07:16:19;;;;;;;4.70;2.20;;;5.70;27.10;;;;;;5011653;28;20427;-68
2024/01/05 07:18:48;;;;;;;8.83;5.60;;;5.70;26.70;;;;;;5011693;28;20982;-68
2024/01/05 07:21:17;;;;;;;9.17;3.20;;;5.70;26.50;;;;;;4993689;28;20471;-67
2024/01/05 07:23:43;;;;;;;5.70;1.97;;;5.80;25.70;;;;;;5011799;28;20427;-67
2024/01/05 07:26:09;;;;;;;5.80;3.30;;;5.80;25.60;;;;;;5011839;28;20430;-67
2024/01/05 07:28:36;;;;;;;3.87;2.23;;;5.80;26.00;;;;;;4994201;28;20514;-67
2024/01/05 07:31:09;;;;;;;4.70;2.43;;;5.80;26.10;;;;;;5011862;28;20427;-67
2024/01/05 07:33:35;;;;;;;3.47;2.47;;;5.80;25.30;;;;;;5011626;28;20442;-67
2024/01/05 07:36:04;;;;;;;3.67;2.40;;;5.90;24.90;;;;;;5011888;28;20422;-68
2024/01/05 07:38:32;;;;;;;3.43;2.00;;;6.00;24.70;;;;;;5011929;28;20180;-66
2024/01/05 07:41:01;;;;;;;4.20;1.83;;;6.00;24.90;;;;;;5011970;28;21013;-67
2024/01/05 07:43:28;;;;;;;5.70;2.50;;;6.00;23.80;;;;;;5011651;28;20853;-68
2024/01/05 07:45:54;;;;;;;5.80;2.30;;;6.10;23.70;;;;;;5011486;28;20429;-67
2024/01/05 07:48:21;;;;;;;4.47;2.33;;;6.20;22.90;;;;;;5011758;28;20415;-68
2024/01/05 07:50:47;;;;;;;5.20;1.93;;;6.20;22.90;;;;;;5007713;28;20419;-66
2024/01/05 07:53:13;;;;;;;4.90;3.20;;;6.20;22.50;;;;;;5007565;28;20424;-68
2024/01/05 07:55:38;;;;;;;16.33;10.63;;;6.30;22.60;;;;;;5008291;28;20181;-67
2024/01/05 07:58:04;;;;;;;18.23;9.10;;;6.30;21.60;;;;;;5007508;28;20537;-66
2024/01/05 08:00:31;;;;;;;8.00;5.40;;;6.50;21.70;;;;;;4993095;28;20248;-67
2024/01/05 08:02:57;;;;;;;4.87;3.10;;;6.50;21.10;;;;;;5011974;28;20332;-66
2024/01/05 08:05:23;;;;;;;9.73;6.47;;;6.60;20.80;;;;;;4993610;28;20956;-67
2024/01/05 08:07:49;;;;;;;10.80;3.37;;;6.70;20.90;;;;;;5011422;28;20529;-66
2024/01/05 08:10:15;;;;;;;5.10;2.80;;;6.70;20.40;;;;;;5010967;28;20298;-67
2024/01/05 08:12:40;;;;;;;4.50;2.37;;;6.70;20.40;;;;;;5009752;28;20267;-68
2024/01/05 08:15:06;;;;;;;8.57;2.73;;;6.80;19.70;;;;;;5010516;28;20464;-67
2024/01/05 08:17:32;;;;;;;4.73;2.73;;;6.90;20.10;;;;;;5011685;28;20191;-68
2024/01/05 08:19:57;;;;;;;5.80;2.80;;;7.00;19.20;;;;;;5011147;28;20549;-68
2024/01/05 08:22:25;;;;;;;3.70;2.30;;;7.10;19.60;;;;;;5011393;28;20190;-68
2024/01/05 08:24:50;;;;;;;5.10;3.07;;;7.00;19.40;;;;;;5011981;28;20253;-72
2024/01/05 08:27:16;;;;;;;5.67;1.70;;;7.20;19.60;;;;;;5007721;28;20854;-68
2024/01/05 08:29:42;;;;;;;3.70;2.27;;;7.20;18.50;;;;;;5006421;28;20194;-70
2024/01/05 08:32:08;;;;;;;3.93;2.10;;;7.20;18.50;;;;;;4993654;28;20190;-70
2024/01/05 08:34:33;;;;;;;3.90;1.83;;;7.30;18.50;;;;;;4999375;28;20269;-70
2024/01/05 08:36:59;;;;;;;5.70;2.03;;;7.30;18.10;;;;;;4997929;28;20452;-69
2024/01/05 08:39:25;;;;;;;5.10;2.53;;;7.30;17.70;;;;;;4991545;28;20274;-69
2024/01/05 08:41:51;;;;;;;6.80;3.03;;;7.20;18.40;;;;;;4988904;28;20663;-69
2024/01/05 08:44:17;;;;;;;4.70;2.57;;;7.30;19.10;;;;;;4971859;28;20272;-69
2024/01/05 08:46:42;;;;;;;11.13;5.00;;;7.30;18.70;;;;;;4989881;28;20543;-71
2024/01/05 08:49:08;;;;;;;12.53;4.70;;;7.20;18.70;;;;;;4989061;28;20427;-70
2024/01/05 08:51:40;;;;;;;9.40;4.30;;;7.00;21.10;;;;;;4989648;28;20214;-70
2024/01/05 08:54:05;;;;;;;7.40;3.87;;;6.90;21.60;;;;;;4989464;28;20213;-70
2024/01/05 08:56:31;;;;;;;9.00;3.50;;;6.60;23.20;;;;;;4990446;28;20486;-69
2024/01/05 08:58:57;;;;;;;6.93;4.30;;;6.40;23.90;;;;;;4990969;28;20270;-70
2024/01/05 09:01:22;;;;;;;11.37;5.20;;;6.20;25.10;;;;;;4973604;28;21009;-70
2024/01/05 09:03:48;;;;;;;8.03;3.80;;;6.20;26.00;;;;;;4990485;28;20216;-69
2024/01/05 09:06:13;;;;;;;6.13;4.30;;;6.10;26.90;;;;;;4991181;28;20186;-69
2024/01/05 09:08:39;;;;;;;5.30;3.90;;;6.00;27.40;;;;;;4991265;28;20652;-69
2024/01/05 09:11:04;;;;;;;7.27;3.73;;;6.10;27.80;;;;;;4989655;28;20225;-68
2024/01/05 09:13:32;;;;;;;12.80;4.33;;;6.20;27.30;;;;;;4990665;28;20307;-70
2024/01/05 09:15:58;;;;;;;4.40;2.93;;;6.40;27.20;;;;;;4990791;28;20194;-70
2024/01/05 09:18:23;;;;;;;4.77;3.83;;;6.40;27.10;;;;;;4990452;28;20444;-70
2024/01/05 09:20:51;;;;;;;10.60;4.80;;;6.40;27.10;;;;;;4990737;28;20293;-69
2024/01/05 09:23:17;;;;;;;7.83;4.80;;;6.50;26.70;;;;;;4990508;28;20184;-69
2024/01/05 09:25:43;;;;;;;10.03;4.27;;;6.60;26.50;;;;;;5000640;28;20478;-69
2024/01/05 09:28:08;;;;;;;9.90;3.90;;;6.80;25.80;;;;;;5010290;28;20185;-69
2024/01/05 09:30:34;;;;;;;8.17;4.10;;;6.90;24.80;;;;;;5009974;28;20222;-69
2024/01/05 09:33:01;;;;;;;8.03;4.03;;;7.10;23.90;;;;;;5010943;28;20489;-70
2024/01/05 09:35:27;;;;;;;8.67;4.37;;;7.30;24.40;;;;;;5006153;28;20197;-68
2024/01/05 09:37:53;;;;;;;6.40;4.30;;;7.30;23.70;;;;;;4994332;28;20975;-69
2024/01/05 09:40:20;;;;;;;8.33;4.20;;;7.30;22.70;;;;;;4993497;28;20202;-69
2024/01/05 09:42:54;;;;;;;8.30;4.50;;;7.40;22.90;;;;;;4994143;28;20178;-68
2024/01/05 09:45:22;;;;;;;7.13;4.50;;;7.50;21.80;;;;;;4994075;28;20430;-67
2024/01/05 09:47:49;;;;;;;7.20;4.70;;;7.50;21.80;;;;;;4994260;28;20452;-68
2024/01/05 09:50:16;;;;;;;5.43;4.10;;;7.60;21.80;;;;;;4994175;28;20421;-69
2024/01/05 09:52:43;;;;;;;7.80;4.37;;;7.70;21.60;;;;;;4976535;28;20961;-68
2024/01/05 09:55:12;;;;;;;6.60;4.37;;;7.80;21.40;;;;;;4976401;28;20477;-68
2024/01/05 09:57:41;;;;;;;11.97;5.20;;;7.90;21.30;;;;;;4993764;28;20465;-68
2024/01/05 10:00:08;;;;;;;9.10;5.37;;;8.00;20.60;;;;;;4993303;28;20472;-67
2024/01/05 10:02:44;;;;;;;7.90;4.90;;;8.10;20.50;;;;;;4975986;28;20419;-68
2024/01/05 10:05:11;;;;;;;8.10;4.30;;;8.20;20.20;;;;;;4993790;28;20442;-69
2024/01/05 10:07:45;;;;;;;5.97;3.87;;;8.30;20.00;;;;;;4993564;28;20424;-69
2024/01/05 10:10:14;;;;;;;5.40;3.83;;;8.40;19.40;;;;;;4993709;28;20434;-68
2024/01/05 10:12:40;;;;;;;8.73;3.77;;;8.50;19.40;;;;;;4993416;28;20900;-67
2024/01/05 10:15:06;;;;;;;10.20;7.93;;;8.60;19.10;;;;;;4993485;28;20837;-68
2024/01/05 10:17:33;;;;;;;13.43;9.03;;;8.70;17.80;;;;;;4993588;28;20420;-68
2024/01/05 10:20:12;;;;;;;14.13;7.70;;;8.70;16.20;;;;;;4993383;28;20600;-69
2024/01/05 10:22:37;;;;;;;10.03;4.60;;;8.80;16.80;;;;;;4992551;28;20441;-69
2024/01/05 10:25:22;;;;;;;10.83;4.53;;;8.90;16.20;;;;;;4993508;28;20442;-69
2024/01/05 10:27:49;;;;;;;8.43;3.23;;;8.90;15.60;;;;;;4993472;28;20214;-67
2024/01/05 10:30:27;;;;;;;25.03;5.80;;;8.90;15.40;;;;;;4993299;28;20806;-68
2024/01/05 10:33:03;;;;;;;4.00;3.03;;;8.80;16.30;;;;;;4993172;28;20508;-68
2024/01/05 10:35:30;;;;;;;5.10;3.50;;;8.60;16.60;;;;;;4993280;28;20411;-67
2024/01/05 10:38:03;;;;;;;5.33;3.20;;;8.70;17.10;;;;;;4993149;28;20550;-68
2024/01/05 10:40:29;;;;;;;11.23;4.60;;;8.70;16.30;;;;;;4992948;28;20463;-68
2024/01/05 10:43:09;;;;;;;7.67;3.47;;;8.70;16.00;;;;;;4992923;28;20415;-68
2024/01/05 10:45:36;;;;;;;9.43;3.17;;;8.80;16.60;;;;;;4993210;28;20172;-69
2024/01/05 10:48:08;;;;;;;6.73;2.80;;;8.80;15.00;;;;;;4993049;28;20445;-68
2024/01/05 10:50:37;;;;;;;5.70;3.63;;;8.80;15.50;;;;;;4993052;28;20883;-69
2024/01/05 10:53:04;;;;;;;6.47;3.40;;;9.00;15.30;;;;;;4992778;28;20497;-67
2024/01/05 10:55:32;;;;;;;7.00;3.33;;;9.10;14.20;;;;;;4992713;28;20464;-69
2024/01/05 10:57:57;;;;;;;5.03;3.20;;;9.10;14.20;;;;;;4975664;28;20453;-68
2024/01/05 11:00:24;;;;;;;4.30;3.17;;;9.30;14.90;;;;;;4993317;28;20826;-67
2024/01/05 11:02:52;;;;;;;5.40;3.57;;;9.30;13.30;;;;;;4992556;28;20190;-67
2024/01/05 11:05:21;;;;;;;8.70;3.93;;;9.00;14.20;;;;;;4992253;28;20479;-67
2024/01/05 11:07:48;;;;;;;5.47;3.50;;;8.80;14.00;;;;;;4992377;28;20502;-67
2024/01/05 11:10:20;;;;;;;11.40;5.10;;;8.80;15.50;;;;;;4992506;28;20889;-68
2024/01/05 11:13:15;;;;;;;6.63;3.63;;;8.90;14.80;;;;;;4993870;28;20431;-68
2024/01/05 11:16:24;;;;;;;12.50;3.73;;;8.80;15.00;;;;;;5005263;28;20458;-68
2024/01/05 11:19:16;;;;;;;7.70;5.10;;;8.80;15.60;;;;;;4943475;28;20992;-68
2024/01/05 11:21:45;;;;;;;14.63;5.10;;;8.90;15.90;;;;;;5011150;28;20453;-69
2024/01/05 11:24:13;;;;;;;7.97;3.87;;;9.00;15.80;;;;;;5011607;28;20505;-69
2024/01/05 11:26:44;;;;;;;6.20;4.90;;;9.00;15.50;;;;;;4993862;28;20411;-68
2024/01/05 11:29:15;;;;;;;7.20;4.70;;;9.00;15.20;;;;;;5011873;28;20407;-68
2024/01/05 11:31:46;;;;;;;7.30;3.83;;;8.90;15.70;;;;;;5011844;28;20418;-67
2024/01/05 11:34:32;;;;;;;5.37;3.60;;;8.90;16.10;;;;;;5011430;28;20441;-69
2024/01/05 11:36:58;;;;;;;6.33;3.30;;;8.90;16.10;;;;;;4996584;28;20435;-68
2024/01/05 11:39:53;;;;;;;5.40;3.63;;;8.90;15.60;;;;;;5010048;28;20434;-68
2024/01/05 11:42:24;;;;;;;5.07;3.23;;;9.00;15.10;;;;;;5011575;28;20441;-67
2024/01/05 11:45:00;;;;;;;5.03;3.40;;;8.90;14.70;;;;;;5011553;28;20426;-67
2024/01/05 11:47:46;;;;;;;10.43;4.63;;;9.00;14.80;;;;;;5011523;28;20474;-68
2024/01/05 11:50:26;;;;;;;5.13;3.20;;;9.10;14.20;;;;;;5011399;28;20415;-67
2024/01/05 11:53:14;;;;;;;6.97;3.27;;;9.30;14.40;;;;;;5011417;28;20411;-68
2024/01/05 11:55:50;;;;;;;12.40;4.10;;;9.30;14.10;;;;;;5011429;28;20469;-68
2024/01/05 11:58:21;;;;;;;5.90;3.63;;;9.40;13.80;;;;;;5011863;28;20999;-67
2024/01/05 12:00:48;;;;;;;5.43;3.53;;;9.50;13.50;;;;;;5011353;28;21004;-69
2024/01/05 12:03:14;;;;;;;6.60;3.30;;;9.50;14.30;;;;;;5011138;28;20411;-67
2024/01/05 12:05:40;;;;;;;5.50;3.47;;;9.60;13.80;;;;;;5011384;28;20438;-69
2024/01/05 12:08:10;;;;;;;6.47;2.93;;;9.50;13.30;;;;;;5011243;28;20415;-67
2024/01/05 12:10:37;;;;;;;5.33;3.50;;;9.50;13.10;;;;;;5011377;28;20541;-68
2024/01/05 12:13:03;;;;;;;6.70;3.40;;;9.40;13.50;;;;;;5010936;28;20917;-68
2024/01/05 12:15:28;;;;;;;7.07;3.67;;;9.30;13.80;;;;;;5010914;28;20423;-67
2024/01/05 12:18:08;;;;;;;5.37;3.30;;;9.30;14.40;;;;;;5010923;28;20542;-67
2024/01/05 12:20:34;;;;;;;5.53;3.13;;;9.20;14.30;;;;;;5010868;28;20200;-69
2024/01/05 12:22:59;;;;;;;6.07;3.60;;;9.30;14.40;;;;;;4993255;28;20432;-67
2024/01/05 12:25:26;;;;;;;6.27;4.20;;;9.40;14.40;;;;;;5011093;28;20501;-69
2024/01/05 12:27:52;;;;;;;5.87;3.27;;;9.40;14.40;;;;;;5010898;28;20644;-68
2024/01/05 12:30:19;;;;;;;8.30;4.00;;;9.40;14.30;;;;;;5011161;28;20418;-67
2024/01/05 12:32:46;;;;;;;6.40;4.57;;;9.40;13.80;;;;;;4993515;28;20426;-68
2024/01/05 12:35:12;;;;;;;9.57;4.37;;;9.40;14.40;;;;;;5010829;28;20588;-69
2024/01/05 12:38:00;;;;;;;7.60;4.97;;;9.40;14.40;;;;;;5011150;28;20518;-72
2024/01/05 12:40:26;;;;;;;7.10;4.00;;;9.40;14.40;;;;;;5011489;28;20470;-73
2024/01/05 12:42:52;;;;;;;10.63;5.13;;;9.40;14.40;;;;;;5011995;28;20422;-72
2024/01/05 12:45:22;;;;;;;13.83;5.70;;;9.40;14.40;;;;;;5013643;28;20899;-72
2024/01/05 12:47:50;;;;;;;14.07;6.00;;;9.50;14.50;;;;;;5015763;28;20451;-74
2024/01/05 12:50:23;;;;;;;13.27;6.00;;;9.50;14.50;;;;;;5016721;28;20415;-73
2024/01/05 12:52:49;;;;;;;10.20;5.57;;;9.70;14.40;;;;;;5016069;28;20425;-72
2024/01/05 12:55:31;;;;;;;9.53;5.47;;;9.80;14.60;;;;;;5016125;28;20513;-71